Time;durP1;ratioP1;P1;durP2;ratioP2;P2;SDS_P1;SDS_P2;PMS_P1;PMS_P2;Temp;Humidity;BMP_temperature;BMP_pressure;BME280_temperature;BME280_humidity;BME280_pressure;Samples;Min_cycle;Max_cycle;Signal;HPM_P1;HPM_P2
2024/03/12 00:00:16;;;;;;;49.23;17.90;;;7.80;99.90;;;;;;5017122;28;20029;-73
2024/03/12 00:02:46;;;;;;;40.85;16.05;;;7.80;99.90;;;;;;5015307;28;20487;-74
2024/03/12 00:05:18;;;;;;;44.13;15.35;;;7.80;99.90;;;;;;5022334;28;20053;-74
2024/03/12 00:07:44;;;;;;;40.60;15.52;;;7.80;99.90;;;;;;5015832;28;20503;-74
2024/03/12 00:10:15;;;;;;;39.10;14.45;;;7.80;99.90;;;;;;5000643;28;20057;-74
2024/03/12 00:12:43;;;;;;;39.00;15.07;;;7.80;99.90;;;;;;5017798;28;20053;-75
2024/03/12 00:15:09;;;;;;;47.00;14.63;;;7.80;99.90;;;;;;5015482;28;20046;-74
2024/03/12 00:17:36;;;;;;;43.63;14.57;;;7.80;99.90;;;;;;5015942;28;20034;-75
2024/03/12 00:20:05;;;;;;;39.33;14.85;;;7.80;99.90;;;;;;5016032;28;20029;-73
2024/03/12 00:22:33;;;;;;;47.45;15.70;;;7.80;99.90;;;;;;5019614;28;20280;-75
2024/03/12 00:25:00;;;;;;;42.47;15.80;;;7.80;99.90;;;;;;5016599;28;20037;-75
2024/03/12 00:27:25;;;;;;;44.47;16.85;;;7.80;99.90;;;;;;5001254;28;20040;-74
2024/03/12 00:29:51;;;;;;;45.17;15.10;;;7.80;99.90;;;;;;5015508;28;20030;-74
2024/03/12 00:32:18;;;;;;;43.78;16.10;;;7.80;99.90;;;;;;5012211;28;20043;-75
2024/03/12 00:34:44;;;;;;;35.15;14.73;;;7.80;99.90;;;;;;5013407;28;20030;-75
2024/03/12 00:37:09;;;;;;;44.42;15.90;;;7.80;99.90;;;;;;5003879;28;20042;-74
2024/03/12 00:39:35;;;;;;;38.15;15.57;;;7.80;99.90;;;;;;5015761;28;20446;-74
2024/03/12 00:42:02;;;;;;;41.70;16.00;;;7.80;99.90;;;;;;5010172;28;20536;-73
2024/03/12 00:44:30;;;;;;;48.10;16.55;;;7.80;99.90;;;;;;5009871;28;20066;-75
2024/03/12 00:46:56;;;;;;;42.80;15.88;;;7.80;99.90;;;;;;5015919;28;20568;-74
2024/03/12 00:49:21;;;;;;;42.42;15.18;;;7.80;99.90;;;;;;5006679;28;20034;-76
2024/03/12 00:51:48;;;;;;;40.83;16.67;;;7.80;99.90;;;;;;5012446;28;20042;-76
2024/03/12 00:54:15;;;;;;;46.00;16.17;;;7.80;99.90;;;;;;4990835;28;20042;-75
2024/03/12 00:56:41;;;;;;;42.70;16.15;;;7.80;99.90;;;;;;4996212;28;20037;-75
2024/03/12 00:59:07;;;;;;;41.85;17.00;;;7.80;99.90;;;;;;4996430;28;20383;-74
2024/03/12 01:01:34;;;;;;;51.78;17.60;;;7.80;99.90;;;;;;5019958;28;20022;-75
2024/03/12 01:04:00;;;;;;;56.42;18.98;;;7.80;99.90;;;;;;5013068;28;20083;-74
2024/03/12 01:06:26;;;;;;;50.80;16.92;;;7.80;99.90;;;;;;5007398;28;20030;-73
2024/03/12 01:08:52;;;;;;;55.78;18.75;;;7.80;99.90;;;;;;5011158;28;20052;-74
2024/03/12 01:11:18;;;;;;;61.53;19.10;;;7.80;99.90;;;;;;5006494;28;20029;-72
2024/03/12 01:13:44;;;;;;;58.28;17.70;;;7.80;99.90;;;;;;4988943;28;20569;-74
2024/03/12 01:16:10;;;;;;;53.22;16.20;;;7.80;99.90;;;;;;4990264;28;20056;-74
2024/03/12 01:18:35;;;;;;;56.65;17.45;;;7.80;99.90;;;;;;4993501;28;20034;-74
2024/03/12 01:21:02;;;;;;;55.33;17.17;;;7.80;99.90;;;;;;5001283;28;20609;-75
2024/03/12 01:23:28;;;;;;;49.30;16.27;;;7.80;99.90;;;;;;4992616;28;20109;-74
2024/03/12 01:25:54;;;;;;;51.40;16.30;;;7.80;99.90;;;;;;5011229;28;20506;-74
2024/03/12 01:28:20;;;;;;;47.58;15.93;;;7.80;99.90;;;;;;4989104;28;20092;-73
2024/03/12 01:30:46;;;;;;;56.90;16.50;;;7.80;99.90;;;;;;5012489;28;20030;-74
2024/03/12 01:33:13;;;;;;;53.55;16.27;;;7.80;99.90;;;;;;5004426;28;20052;-75
2024/03/12 01:35:38;;;;;;;50.33;15.73;;;7.80;99.90;;;;;;4993091;28;20049;-73
2024/03/12 01:38:04;;;;;;;49.22;15.32;;;7.80;99.90;;;;;;4992957;28;20037;-74
2024/03/12 01:40:29;;;;;;;62.22;17.42;;;7.80;99.90;;;;;;4998194;28;20165;-74
2024/03/12 01:42:58;;;;;;;52.85;17.73;;;7.80;99.90;;;;;;5014268;28;20037;-74
2024/03/12 01:45:25;;;;;;;49.35;15.77;;;7.80;99.90;;;;;;5009822;28;20034;-75
2024/03/12 01:47:52;;;;;;;67.55;17.58;;;7.80;99.90;;;;;;5009005;28;20046;-73
2024/03/12 01:50:19;;;;;;;61.95;18.00;;;7.80;99.90;;;;;;5005342;28;20051;-73
2024/03/12 01:52:46;;;;;;;48.28;15.50;;;7.80;99.90;;;;;;5008913;28;20380;-74
2024/03/12 01:55:12;;;;;;;51.42;15.93;;;7.80;99.90;;;;;;5010754;28;20479;-74
2024/03/12 01:57:41;;;;;;;43.22;16.52;;;7.80;99.90;;;;;;4995067;28;20038;-74
2024/03/12 02:00:10;;;;;;;47.67;16.40;;;7.80;99.90;;;;;;5008648;28;20046;-74
2024/03/12 02:02:36;;;;;;;47.03;15.25;;;7.80;99.90;;;;;;4995369;28;20048;-75
2024/03/12 02:05:02;;;;;;;48.78;15.75;;;7.80;99.90;;;;;;4992516;28;20441;-74
2024/03/12 02:07:28;;;;;;;42.00;14.32;;;7.80;99.90;;;;;;5010044;28;20068;-75
2024/03/12 02:09:54;;;;;;;42.38;14.85;;;7.80;99.90;;;;;;5013800;28;20021;-74
2024/03/12 02:12:19;;;;;;;52.75;15.85;;;7.80;99.90;;;;;;4990419;28;20038;-74
2024/03/12 02:14:45;;;;;;;47.17;15.10;;;7.80;99.90;;;;;;5015131;28;20061;-74
2024/03/12 02:17:11;;;;;;;47.55;14.65;;;7.80;99.90;;;;;;5008837;28;20044;-74
2024/03/12 02:19:37;;;;;;;42.03;14.10;;;7.80;99.90;;;;;;4991870;28;20143;-74
2024/03/12 02:22:05;;;;;;;49.25;14.93;;;7.80;99.90;;;;;;5011571;28;20057;-74
2024/03/12 02:24:31;;;;;;;50.70;16.75;;;7.80;99.90;;;;;;5010570;28;20061;-73
2024/03/12 02:26:56;;;;;;;58.50;18.05;;;7.80;99.90;;;;;;5015762;28;20117;-74
2024/03/12 02:29:22;;;;;;;44.83;17.00;;;7.80;99.90;;;;;;5011559;28;20113;-75
2024/03/12 02:31:47;;;;;;;49.28;14.70;;;7.80;99.90;;;;;;4993627;28;20050;-73
2024/03/12 02:34:13;;;;;;;53.90;14.75;;;7.80;99.90;;;;;;5012961;28;20089;-74
2024/03/12 02:36:40;;;;;;;45.42;16.63;;;7.80;99.90;;;;;;4995956;28;20042;-76
2024/03/12 02:39:06;;;;;;;60.50;16.52;;;7.80;99.90;;;;;;5014643;28;20034;-74
2024/03/12 02:41:33;;;;;;;54.28;16.50;;;7.80;99.90;;;;;;4998847;28;20022;-74
2024/03/12 02:43:59;;;;;;;49.03;16.48;;;7.70;99.90;;;;;;5015646;28;20037;-75
2024/03/12 02:46:24;;;;;;;54.63;17.92;;;7.70;99.90;;;;;;5017117;28;20040;-74
2024/03/12 02:48:53;;;;;;;52.63;18.58;;;7.70;99.90;;;;;;5017864;28;20021;-74
2024/03/12 02:51:19;;;;;;;49.58;16.38;;;7.70;99.90;;;;;;5011736;28;20026;-73
2024/03/12 02:53:45;;;;;;;47.10;15.80;;;7.70;99.90;;;;;;5017465;28;20033;-75
2024/03/12 02:56:12;;;;;;;47.13;16.63;;;7.70;99.90;;;;;;5013300;28;20045;-75
2024/03/12 02:58:37;;;;;;;54.40;17.42;;;7.70;99.90;;;;;;4997843;28;20427;-74
2024/03/12 03:01:03;;;;;;;43.17;13.63;;;7.70;99.90;;;;;;5018573;28;20040;-73
2024/03/12 03:03:28;;;;;;;44.75;15.15;;;7.70;99.90;;;;;;4999898;28;20045;-74
2024/03/12 03:05:54;;;;;;;47.20;15.35;;;7.70;99.90;;;;;;4997916;28;20033;-73
2024/03/12 03:08:20;;;;;;;52.53;15.98;;;7.60;99.90;;;;;;4998677;28;20041;-74
2024/03/12 03:10:45;;;;;;;49.15;14.00;;;7.60;99.90;;;;;;4999954;28;20473;-73
2024/03/12 03:13:11;;;;;;;47.35;14.93;;;7.70;99.90;;;;;;4995548;28;20046;-74
2024/03/12 03:15:37;;;;;;;44.08;13.63;;;7.60;99.90;;;;;;5023126;28;20041;-74
2024/03/12 03:18:03;;;;;;;41.85;13.05;;;7.70;99.90;;;;;;5016983;28;20034;-75
2024/03/12 03:20:28;;;;;;;44.00;13.20;;;7.60;99.90;;;;;;5019016;28;20049;-74
2024/03/12 03:22:54;;;;;;;38.75;12.40;;;7.60;99.90;;;;;;4998086;28;20049;-74
2024/03/12 03:25:20;;;;;;;40.55;12.60;;;7.60;99.90;;;;;;5017297;28;20083;-73
2024/03/12 03:27:45;;;;;;;44.63;13.68;;;7.60;99.90;;;;;;5013956;28;20418;-74
2024/03/12 03:30:17;;;;;;;45.65;14.45;;;7.60;99.90;;;;;;5014471;28;20731;-74
2024/03/12 03:32:43;;;;;;;36.92;11.50;;;7.60;99.90;;;;;;5000999;28;20048;-74
2024/03/12 03:35:10;;;;;;;44.80;13.10;;;7.60;99.90;;;;;;5014845;28;20037;-74
2024/03/12 03:37:36;;;;;;;36.00;11.40;;;7.60;99.90;;;;;;5012421;28;20061;-75
2024/03/12 03:40:22;;;;;;;45.55;13.15;;;7.50;99.90;;;;;;5004564;28;20490;-73
2024/03/12 03:42:49;;;;;;;37.72;12.93;;;7.50;99.90;;;;;;5001062;28;20521;-74
2024/03/12 03:45:15;;;;;;;42.22;12.68;;;7.60;99.90;;;;;;5014188;28;20034;-74
2024/03/12 03:47:40;;;;;;;35.10;12.93;;;7.60;99.90;;;;;;5020756;28;20072;-75
2024/03/12 03:50:07;;;;;;;42.75;12.85;;;7.60;99.90;;;;;;4998800;28;20045;-74
2024/03/12 03:52:33;;;;;;;46.42;13.32;;;7.60;99.90;;;;;;4995809;28;20037;-74
2024/03/12 03:54:59;;;;;;;39.95;12.32;;;7.60;99.90;;;;;;5005155;28;20161;-74
2024/03/12 03:57:24;;;;;;;45.05;13.52;;;7.60;99.90;;;;;;5019732;28;20521;-74
2024/03/12 03:59:50;;;;;;;44.00;12.15;;;7.60;99.90;;;;;;5016712;28;20510;-73
2024/03/12 04:02:16;;;;;;;39.00;12.85;;;7.60;99.90;;;;;;5011104;28;20038;-74
2024/03/12 04:04:45;;;;;;;43.75;12.40;;;7.60;99.90;;;;;;5012942;28;20046;-74
2024/03/12 04:07:11;;;;;;;34.85;11.68;;;7.50;99.90;;;;;;5004581;28;20029;-74
2024/03/12 04:09:37;;;;;;;43.75;12.57;;;7.60;99.90;;;;;;4991624;28;20504;-74
2024/03/12 04:12:04;;;;;;;45.85;12.90;;;7.50;99.90;;;;;;5005531;28;20454;-75
2024/03/12 04:14:30;;;;;;;48.63;14.43;;;7.50;99.90;;;;;;5005538;28;20031;-78
2024/03/12 04:16:56;;;;;;;60.88;14.00;;;7.50;99.90;;;;;;4993798;28;20406;-76
2024/03/12 04:19:21;;;;;;;40.97;11.57;;;7.50;99.90;;;;;;5008574;28;20128;-75
2024/03/12 04:21:47;;;;;;;42.33;11.95;;;7.50;99.90;;;;;;5009956;28;20041;-75
2024/03/12 04:24:13;;;;;;;45.97;13.43;;;7.50;99.90;;;;;;5009141;28;20033;-74
2024/03/12 04:26:39;;;;;;;33.17;11.55;;;7.50;99.90;;;;;;5010886;28;20427;-75
2024/03/12 04:29:05;;;;;;;38.97;12.70;;;7.50;99.90;;;;;;5009430;28;20083;-74
2024/03/12 04:31:32;;;;;;;36.30;11.43;;;7.50;99.90;;;;;;5006372;28;20034;-74
2024/03/12 04:33:58;;;;;;;41.92;11.80;;;7.50;99.90;;;;;;5013240;28;20021;-73
2024/03/12 04:36:24;;;;;;;31.65;10.65;;;7.50;99.90;;;;;;5009949;28;20087;-74
2024/03/12 04:38:50;;;;;;;35.22;10.35;;;7.60;99.90;;;;;;4993707;28;20036;-73
2024/03/12 04:41:21;;;;;;;40.67;12.18;;;7.50;99.90;;;;;;4993126;28;20029;-74
2024/03/12 04:43:48;;;;;;;39.47;11.45;;;7.50;99.90;;;;;;5014796;28;20022;-74
2024/03/12 04:46:13;;;;;;;36.63;11.45;;;7.50;99.90;;;;;;4989234;28;20126;-74
2024/03/12 04:48:39;;;;;;;36.95;10.85;;;7.60;99.90;;;;;;4991737;28;20117;-74
2024/03/12 04:51:04;;;;;;;42.83;11.27;;;7.50;99.90;;;;;;5012241;28;20026;-74
2024/03/12 04:53:30;;;;;;;37.95;11.02;;;7.50;99.90;;;;;;5002950;28;20490;-75
2024/03/12 04:55:57;;;;;;;38.47;10.90;;;7.50;99.90;;;;;;5012801;28;20064;-75
2024/03/12 04:58:23;;;;;;;37.50;11.10;;;7.50;99.90;;;;;;5008856;28;20037;-75
2024/03/12 05:00:49;;;;;;;40.10;11.52;;;7.50;99.90;;;;;;5010148;28;20033;-73
2024/03/12 05:03:15;;;;;;;35.15;10.88;;;7.50;99.90;;;;;;5015273;28;20491;-74
2024/03/12 05:05:41;;;;;;;34.10;9.63;;;7.50;99.90;;;;;;5006891;28;20038;-74
2024/03/12 05:08:07;;;;;;;33.63;11.98;;;7.50;99.90;;;;;;4995654;28;20041;-74
2024/03/12 05:10:33;;;;;;;33.92;11.00;;;7.50;99.90;;;;;;5006885;28;20042;-74
2024/03/12 05:13:00;;;;;;;31.33;12.45;;;7.50;99.90;;;;;;4996053;28;20426;-74
2024/03/12 05:15:25;;;;;;;38.00;10.43;;;7.50;99.90;;;;;;5011616;28;20383;-74
2024/03/12 05:17:52;;;;;;;35.67;11.52;;;7.50;99.90;;;;;;5013132;28;20042;-74
2024/03/12 05:20:18;;;;;;;39.28;11.00;;;7.40;99.90;;;;;;5008955;28;20037;-73
2024/03/12 05:22:45;;;;;;;41.20;10.68;;;7.50;99.90;;;;;;4995104;28;20723;-74
2024/03/12 05:25:23;;;;;;;29.73;11.38;;;7.40;99.90;;;;;;5011694;28;20449;-74
2024/03/12 05:27:49;;;;;;;30.33;10.65;;;7.40;99.90;;;;;;4993837;28;20117;-71
2024/03/12 05:30:15;;;;;;;47.03;11.40;;;7.50;99.90;;;;;;4994014;28;20406;-74
2024/03/12 05:32:47;;;;;;;38.13;11.38;;;7.50;99.90;;;;;;4991274;28;20039;-75
2024/03/12 05:35:25;;;;;;;48.80;10.18;;;7.50;99.90;;;;;;5005211;28;20097;-75
2024/03/12 05:48:52;;;;;;;35.88;11.23;;;7.50;99.90;;;;;;5012222;28;20125;-75
2024/03/12 05:51:20;;;;;;;34.58;10.25;;;7.40;99.90;;;;;;4998762;28;20050;-72
2024/03/12 05:53:46;;;;;;;36.15;9.45;;;7.40;99.90;;;;;;5011711;28;20487;-74
2024/03/12 05:56:12;;;;;;;30.42;9.60;;;7.40;99.90;;;;;;5008584;28;20046;-74
2024/03/12 05:58:38;;;;;;;32.78;10.35;;;7.40;99.90;;;;;;5004481;28;20125;-74
2024/03/12 06:01:04;;;;;;;43.33;11.32;;;7.50;99.90;;;;;;5009346;28;20100;-74
2024/03/12 06:03:31;;;;;;;34.05;9.75;;;7.40;99.90;;;;;;4982875;28;20038;-73
2024/03/12 06:05:56;;;;;;;41.88;10.65;;;7.40;99.90;;;;;;5008314;28;20053;-74
2024/03/12 06:08:24;;;;;;;38.05;10.85;;;7.40;99.90;;;;;;5009156;28;20499;-74
2024/03/12 06:10:52;;;;;;;33.20;9.65;;;7.50;99.90;;;;;;5009126;28;20442;-73
2024/03/12 06:13:20;;;;;;;30.55;9.35;;;7.40;99.90;;;;;;5007548;28;20034;-74
2024/03/12 06:15:46;;;;;;;28.88;10.27;;;7.50;99.90;;;;;;5006183;28;20038;-74
2024/03/12 06:18:13;;;;;;;34.85;10.55;;;7.40;99.90;;;;;;5007812;28;20030;-75
2024/03/12 06:20:40;;;;;;;29.25;8.85;;;7.40;99.90;;;;;;5013127;28;20034;-76
2024/03/12 06:23:05;;;;;;;41.25;11.20;;;7.40;99.90;;;;;;5015469;28;20084;-75
2024/03/12 06:25:31;;;;;;;42.35;10.80;;;7.40;99.90;;;;;;5007182;28;20042;-75
2024/03/12 06:28:05;;;;;;;33.90;10.40;;;7.40;99.90;;;;;;5001932;28;20037;-73
2024/03/12 06:30:36;;;;;;;30.33;9.43;;;7.50;99.90;;;;;;5013415;28;20046;-75
2024/03/12 06:33:02;;;;;;;30.42;9.25;;;7.40;99.90;;;;;;4988774;28;20029;-74
2024/03/12 06:35:28;;;;;;;35.35;9.85;;;7.40;99.90;;;;;;4989510;28;20842;-75
2024/03/12 06:37:54;;;;;;;29.55;9.18;;;7.40;99.90;;;;;;4988203;28;20049;-74
2024/03/12 06:40:25;;;;;;;37.10;9.75;;;7.40;99.90;;;;;;4990283;28;20451;-75
2024/03/12 06:42:51;;;;;;;28.08;9.63;;;7.40;99.90;;;;;;5007466;28;20080;-74
2024/03/12 06:45:17;;;;;;;29.83;8.20;;;7.40;99.90;;;;;;5007338;28;20065;-76
2024/03/12 06:47:43;;;;;;;23.85;8.98;;;7.50;99.90;;;;;;4990753;28;20046;-74
2024/03/12 06:50:09;;;;;;;38.53;9.18;;;7.50;99.90;;;;;;4991111;28;20042;-74
2024/03/12 06:52:36;;;;;;;29.67;7.90;;;7.40;99.90;;;;;;4990884;28;20045;-73
2024/03/12 06:55:05;;;;;;;26.73;7.20;;;7.50;99.90;;;;;;4991730;28;20081;-74
2024/03/12 06:57:34;;;;;;;29.88;8.63;;;7.50;99.90;;;;;;4990548;28;20457;-74
2024/03/12 07:00:08;;;;;;;26.67;8.07;;;7.50;99.90;;;;;;5009901;28;20050;-74
2024/03/12 07:02:38;;;;;;;23.63;8.68;;;7.50;99.90;;;;;;4989137;28;20507;-75
2024/03/12 07:05:04;;;;;;;30.20;9.23;;;7.50;99.90;;;;;;4998694;28;20072;-75
2024/03/12 07:07:31;;;;;;;28.63;8.40;;;7.50;99.90;;;;;;4992994;28;20045;-76
2024/03/12 07:09:59;;;;;;;20.30;7.78;;;7.50;99.90;;;;;;5010260;28;20037;-74
2024/03/12 07:12:25;;;;;;;29.67;8.07;;;7.50;99.90;;;;;;5009312;28;20038;-73
2024/03/12 07:14:56;;;;;;;20.55;8.60;;;7.50;99.90;;;;;;4997336;28;20516;-74
2024/03/12 07:17:22;;;;;;;24.02;8.80;;;7.50;99.90;;;;;;5006739;28;20042;-72
2024/03/12 07:19:49;;;;;;;20.85;7.00;;;7.50;99.90;;;;;;5003463;28;20030;-75
2024/03/12 07:22:17;;;;;;;26.45;7.75;;;7.50;99.90;;;;;;4987797;28;20885;-74
2024/03/12 07:24:43;;;;;;;26.38;9.20;;;7.50;99.90;;;;;;5008742;28;20050;-74
2024/03/12 07:27:10;;;;;;;24.00;8.73;;;7.60;99.90;;;;;;5005598;28;20030;-74
2024/03/12 07:29:36;;;;;;;32.70;8.02;;;7.60;99.90;;;;;;4987907;28;20116;-74
2024/03/12 07:32:03;;;;;;;26.48;8.65;;;7.50;99.90;;;;;;5006345;28;20033;-74
2024/03/12 07:34:29;;;;;;;30.08;8.23;;;7.60;99.90;;;;;;5004771;28;20034;-72
2024/03/12 07:36:57;;;;;;;28.88;7.22;;;7.60;99.90;;;;;;5006872;28;20049;-74
2024/03/12 07:39:25;;;;;;;29.65;8.27;;;7.60;99.90;;;;;;5003774;28;20068;-73
2024/03/12 07:41:55;;;;;;;24.20;8.52;;;7.60;99.90;;;;;;4986839;28;20084;-74
2024/03/12 07:44:22;;;;;;;26.85;7.43;;;7.60;99.90;;;;;;4988614;28;20034;-74
2024/03/12 07:46:48;;;;;;;24.45;7.90;;;7.70;99.90;;;;;;5004718;28;20057;-74
2024/03/12 07:49:20;;;;;;;25.98;7.93;;;7.60;99.90;;;;;;5013142;28;20064;-75
2024/03/12 07:51:49;;;;;;;27.80;7.85;;;7.70;99.90;;;;;;4992214;28;20061;-74
2024/03/12 07:54:20;;;;;;;20.88;8.05;;;7.70;99.90;;;;;;5016403;28;20061;-75
2024/03/12 07:56:50;;;;;;;28.33;8.15;;;7.70;99.90;;;;;;5012212;28;20083;-75
2024/03/12 07:59:17;;;;;;;21.60;7.00;;;7.70;99.90;;;;;;5014937;28;20030;-74
2024/03/12 08:01:46;;;;;;;18.30;6.95;;;7.70;99.90;;;;;;4994028;28;20033;-75
2024/03/12 08:04:13;;;;;;;25.00;8.00;;;7.70;99.90;;;;;;5005620;28;20118;-74
2024/03/12 08:06:39;;;;;;;27.60;7.32;;;7.70;99.90;;;;;;5009457;28;20810;-74
2024/03/12 08:09:06;;;;;;;35.92;9.30;;;7.80;99.90;;;;;;5009291;28;20033;-74
2024/03/12 08:11:33;;;;;;;27.08;7.78;;;7.80;99.90;;;;;;5003739;28;20034;-72
2024/03/12 08:13:59;;;;;;;26.02;8.20;;;7.80;99.90;;;;;;4981304;28;20121;-75
2024/03/12 08:16:25;;;;;;;23.23;6.88;;;7.80;99.90;;;;;;5004040;28;20476;-74
2024/03/12 08:18:50;;;;;;;19.83;6.80;;;7.90;99.90;;;;;;4988118;28;20050;-74
2024/03/12 08:21:16;;;;;;;19.73;7.28;;;7.90;99.90;;;;;;4987955;28;20041;-74
2024/03/12 08:23:41;;;;;;;20.67;7.38;;;8.00;99.90;;;;;;4986385;28;20049;-74
2024/03/12 08:26:07;;;;;;;22.83;7.15;;;8.00;99.90;;;;;;4990524;28;20215;-73
2024/03/12 08:28:33;;;;;;;20.15;7.50;;;8.10;99.90;;;;;;4989590;28;20041;-73
2024/03/12 08:30:59;;;;;;;29.48;7.80;;;8.10;99.90;;;;;;4986435;28;20033;-74
2024/03/12 08:33:25;;;;;;;17.23;7.05;;;8.10;99.90;;;;;;5005744;28;20033;-73
2024/03/12 08:35:50;;;;;;;24.45;6.88;;;8.10;99.90;;;;;;4993549;28;20038;-75
2024/03/12 08:38:16;;;;;;;22.77;8.10;;;8.20;99.90;;;;;;5008149;28;20026;-74
2024/03/12 08:40:42;;;;;;;25.00;8.00;;;8.10;99.90;;;;;;5004311;28;20048;-75
2024/03/12 08:43:08;;;;;;;20.30;8.63;;;8.20;99.90;;;;;;4990153;28;20038;-73
2024/03/12 08:45:35;;;;;;;17.63;6.82;;;8.20;99.90;;;;;;5003884;28;20411;-73
2024/03/12 08:48:03;;;;;;;21.35;7.28;;;8.20;99.90;;;;;;4983609;28;20038;-74
2024/03/12 08:50:29;;;;;;;18.70;7.20;;;8.10;99.90;;;;;;5003004;28;20394;-76
2024/03/12 08:52:55;;;;;;;19.30;6.70;;;8.10;99.90;;;;;;4985751;28;20034;-76
2024/03/12 08:55:21;;;;;;;20.92;9.05;;;8.00;99.90;;;;;;5005170;28;20806;-75
2024/03/12 08:57:46;;;;;;;18.90;7.45;;;8.10;99.90;;;;;;4989095;28;20068;-76
2024/03/12 09:00:12;;;;;;;20.13;7.32;;;8.10;99.90;;;;;;4990716;28;20025;-74
2024/03/12 09:02:42;;;;;;;19.05;6.85;;;8.10;99.90;;;;;;5006024;28;20080;-73
2024/03/12 09:05:09;;;;;;;21.98;6.93;;;8.20;99.90;;;;;;5004117;28;20033;-74
2024/03/12 09:07:38;;;;;;;26.17;6.82;;;8.30;99.90;;;;;;5005383;28;20026;-74
2024/03/12 09:10:12;;;;;;;21.75;8.10;;;8.30;99.90;;;;;;5004332;28;20100;-73
2024/03/12 09:12:38;;;;;;;21.77;7.45;;;8.40;99.90;;;;;;5004258;28;20186;-72
2024/03/12 09:15:04;;;;;;;19.50;7.10;;;8.40;99.90;;;;;;5003733;28;20046;-74
2024/03/12 09:17:30;;;;;;;17.33;7.22;;;8.40;99.90;;;;;;5004649;28;20034;-71
2024/03/12 09:19:57;;;;;;;21.65;7.18;;;8.40;99.90;;;;;;4992347;28;20034;-74
2024/03/12 09:22:22;;;;;;;18.38;6.93;;;8.50;99.90;;;;;;5007293;28;20033;-73
2024/03/12 09:24:49;;;;;;;21.45;6.57;;;8.50;99.90;;;;;;5004304;28;20034;-75
2024/03/12 09:27:15;;;;;;;18.77;7.45;;;8.50;99.90;;;;;;5003653;28;20037;-75
2024/03/12 09:29:41;;;;;;;17.83;7.10;;;8.50;99.90;;;;;;4985690;28;20038;-75
2024/03/12 09:32:06;;;;;;;19.13;6.05;;;8.50;99.90;;;;;;5003538;28;20145;-74
2024/03/12 09:34:36;;;;;;;15.40;7.50;;;8.50;99.90;;;;;;5006946;28;20034;-75
2024/03/12 09:37:02;;;;;;;17.55;7.43;;;8.60;99.90;;;;;;4988679;28;20033;-74
2024/03/12 09:39:30;;;;;;;16.50;7.10;;;8.60;99.90;;;;;;4988357;28;20030;-75
2024/03/12 09:41:56;;;;;;;23.10;7.70;;;8.70;99.90;;;;;;5007809;28;20057;-74
2024/03/12 09:44:22;;;;;;;16.55;7.60;;;8.80;99.90;;;;;;5005820;28;20466;-73
2024/03/12 09:46:48;;;;;;;22.05;7.45;;;8.90;99.90;;;;;;5003252;28;20026;-74
2024/03/12 09:49:18;;;;;;;21.65;7.88;;;9.00;99.90;;;;;;4987388;28;20542;-75
2024/03/12 09:51:44;;;;;;;17.05;7.75;;;9.00;99.90;;;;;;5003339;28;20488;-75
2024/03/12 09:54:11;;;;;;;21.45;8.57;;;9.20;99.90;;;;;;5005831;28;20041;-74
2024/03/12 09:56:37;;;;;;;16.92;7.32;;;9.20;99.90;;;;;;5006332;28;20117;-74
2024/03/12 09:59:04;;;;;;;15.77;6.75;;;9.30;99.90;;;;;;5008513;28;20027;-74
2024/03/12 10:01:30;;;;;;;15.80;7.22;;;9.30;99.90;;;;;;5007506;28;20574;-75
2024/03/12 10:03:56;;;;;;;16.23;5.97;;;9.30;99.90;;;;;;4990870;28;20056;-74
2024/03/12 10:06:22;;;;;;;16.38;5.82;;;9.40;99.90;;;;;;5009616;28;20117;-74
2024/03/12 10:08:47;;;;;;;18.15;6.05;;;9.40;99.90;;;;;;5006671;28;20063;-74
2024/03/12 10:11:20;;;;;;;14.60;7.22;;;9.30;99.90;;;;;;4988096;28;20125;-74
2024/03/12 10:13:55;;;;;;;22.05;6.75;;;9.30;99.90;;;;;;5002971;28;20424;-75
2024/03/12 10:16:24;;;;;;;13.93;5.95;;;9.30;99.90;;;;;;5003156;28;20057;-75
2024/03/12 10:19:09;;;;;;;12.15;5.18;;;9.30;99.90;;;;;;5009400;28;20068;-73
2024/03/12 10:21:36;;;;;;;17.00;7.05;;;9.30;99.90;;;;;;5006268;28;20060;-74
2024/03/12 10:24:17;;;;;;;19.45;6.50;;;9.30;99.90;;;;;;4989237;28;20030;-74
2024/03/12 10:26:46;;;;;;;17.05;6.53;;;9.30;99.90;;;;;;5004694;28;20041;-74
2024/03/12 10:29:13;;;;;;;19.85;6.15;;;9.30;99.90;;;;;;4990847;28;20402;-75
2024/03/12 10:31:45;;;;;;;16.88;6.10;;;9.30;99.90;;;;;;5004620;28;20054;-75
2024/03/12 10:34:17;;;;;;;15.82;7.07;;;9.30;99.90;;;;;;5005281;28;20033;-75
2024/03/12 10:36:44;;;;;;;19.77;7.95;;;9.40;99.90;;;;;;5006666;28;20059;-74
2024/03/12 10:39:28;;;;;;;18.08;6.40;;;9.40;99.90;;;;;;4979965;28;20492;-75
2024/03/12 10:41:58;;;;;;;18.63;7.20;;;9.50;99.90;;;;;;4999835;28;20136;-73
2024/03/12 10:44:25;;;;;;;16.88;7.28;;;9.50;99.90;;;;;;4998564;28;20029;-71
2024/03/12 10:46:52;;;;;;;20.13;8.35;;;9.60;99.90;;;;;;4996857;28;20467;-70
2024/03/12 10:49:18;;;;;;;16.48;7.40;;;9.60;99.90;;;;;;4998272;28;20023;-69
2024/03/12 10:51:45;;;;;;;22.40;9.32;;;9.60;99.90;;;;;;4984376;28;20030;-70
2024/03/12 10:54:13;;;;;;;22.73;7.80;;;9.70;99.90;;;;;;5002399;28;20029;-71
2024/03/12 10:56:41;;;;;;;19.88;7.78;;;9.80;99.90;;;;;;4997349;28;20126;-69
2024/03/12 10:59:08;;;;;;;18.00;8.00;;;9.90;99.90;;;;;;4987198;28;20049;-71
2024/03/12 11:01:35;;;;;;;19.17;7.95;;;9.90;99.90;;;;;;4999555;28;20030;-68
2024/03/12 11:04:01;;;;;;;23.42;8.45;;;10.00;99.90;;;;;;5001320;28;20038;-70
2024/03/12 11:06:27;;;;;;;18.45;8.07;;;10.10;99.90;;;;;;5006029;28;20114;-70
2024/03/12 11:08:55;;;;;;;16.95;7.90;;;10.20;99.90;;;;;;4982140;28;20114;-69
2024/03/12 11:11:21;;;;;;;19.23;7.85;;;10.20;99.90;;;;;;4984040;28;20034;-70
2024/03/12 11:13:50;;;;;;;17.55;7.60;;;10.50;99.90;;;;;;4982194;28;20062;-70
2024/03/12 11:16:17;;;;;;;18.23;7.38;;;10.60;99.90;;;;;;5000007;28;20034;-70
2024/03/12 11:18:47;;;;;;;24.13;7.63;;;10.50;99.90;;;;;;4999783;28;20674;-70
2024/03/12 11:21:23;;;;;;;;;;;10.50;99.90;;;;;;4984382;28;20041;-71
2024/03/12 11:23:49;;;;;;;18.05;7.07;;;10.60;99.90;;;;;;5004285;28;20022;-69
2024/03/12 11:26:15;;;;;;;20.55;7.43;;;10.70;99.90;;;;;;5002037;28;20038;-70
2024/03/12 11:28:50;;;;;;;18.85;7.80;;;11.00;99.90;;;;;;5001842;28;20038;-70
2024/03/12 11:31:19;;;;;;;20.63;7.93;;;11.20;99.90;;;;;;5003016;28;20034;-69
2024/03/12 11:33:49;;;;;;;22.42;7.45;;;11.40;99.90;;;;;;5003806;28;20164;-68
2024/03/12 11:36:26;;;;;;;18.20;7.75;;;11.40;99.90;;;;;;5005314;28;20142;-71
2024/03/12 11:38:52;;;;;;;20.92;7.63;;;11.60;99.90;;;;;;5003544;28;20081;-68
2024/03/12 11:41:21;;;;;;;18.67;7.07;;;11.60;99.90;;;;;;5003229;28;20121;-70
2024/03/12 11:43:48;;;;;;;16.55;7.30;;;11.70;99.90;;;;;;5008252;28;20399;-70
2024/03/12 11:46:40;;;;;;;18.13;7.63;;;11.70;99.90;;;;;;5010911;28;20037;-70
2024/03/12 11:49:32;;;;;;;17.90;7.18;;;11.70;99.90;;;;;;5002175;28;20042;-70
2024/03/12 11:51:57;;;;;;;20.30;7.93;;;11.90;99.90;;;;;;5002751;28;20045;-70
2024/03/12 11:54:44;;;;;;;18.92;7.70;;;12.00;99.90;;;;;;5000836;28;20057;-69
2024/03/12 11:57:29;;;;;;;22.08;8.40;;;12.00;99.90;;;;;;4996399;28;20825;-70
2024/03/12 11:59:56;;;;;;;15.75;6.90;;;12.00;99.90;;;;;;5002950;28;20168;-70
2024/03/12 12:02:23;;;;;;;17.35;7.93;;;12.00;99.90;;;;;;5008427;28;20033;-70
2024/03/12 12:04:53;;;;;;;20.23;7.50;;;12.00;99.90;;;;;;5003863;28;20112;-69
2024/03/12 12:07:22;;;;;;;19.95;8.13;;;12.10;99.90;;;;;;5006338;28;20045;-69
2024/03/12 12:09:49;;;;;;;19.92;8.18;;;12.20;99.90;;;;;;4989345;28;20502;-70
2024/03/12 12:12:15;;;;;;;20.40;7.70;;;12.20;99.90;;;;;;5001527;28;20058;-71
2024/03/12 12:14:45;;;;;;;19.05;7.93;;;12.00;99.90;;;;;;5007599;28;20087;-69
2024/03/12 12:17:11;;;;;;;23.60;7.05;;;11.80;99.90;;;;;;5003039;28;20084;-70
2024/03/12 12:19:37;;;;;;;16.83;7.53;;;11.80;99.90;;;;;;5007226;28;20125;-69
2024/03/12 12:22:04;;;;;;;22.20;9.05;;;11.80;99.90;;;;;;4999580;28;20049;-70
2024/03/12 12:24:31;;;;;;;20.23;8.93;;;11.90;99.90;;;;;;5007586;28;20033;-70
2024/03/12 12:26:57;;;;;;;17.77;8.57;;;11.90;99.90;;;;;;5000536;28;20121;-70
2024/03/12 12:29:25;;;;;;;25.83;8.50;;;11.90;99.90;;;;;;5005008;28;20030;-67
2024/03/12 12:31:52;;;;;;;18.67;8.73;;;12.00;99.90;;;;;;5006899;28;20095;-68
2024/03/12 12:34:20;;;;;;;21.65;9.55;;;12.00;99.90;;;;;;5004492;28;20041;-70
2024/03/12 12:36:49;;;;;;;18.92;7.78;;;12.10;99.90;;;;;;4984090;28;20038;-70
2024/03/12 12:39:16;;;;;;;19.83;7.85;;;12.10;99.90;;;;;;5006698;28;20038;-69
2024/03/12 12:41:45;;;;;;;26.13;9.63;;;12.30;99.90;;;;;;5006299;28;20038;-71
2024/03/12 12:44:21;;;;;;;24.02;9.63;;;12.40;99.90;;;;;;5005440;28;20104;-70
2024/03/12 12:46:52;;;;;;;25.83;9.48;;;12.40;99.90;;;;;;5007173;28;20030;-69
2024/03/12 12:49:17;;;;;;;21.75;8.73;;;12.30;99.90;;;;;;4984804;28;20096;-70
2024/03/12 12:51:47;;;;;;;24.55;9.88;;;12.30;99.90;;;;;;4984140;28;20426;-70